Latest Weather Observations for Mardie

IDW60801

Issued at 3:35 pm WST Friday 22 August 2014 (issued every 30 minutes, with the page automatically refreshed every 10 minutes)

About weather observations | Map of weather stations | Latest weather observations for WA | Other Formats
Station Details ID: 005008 Name: MARDIE Lat: -21.19 Lon: 115.98 Height: 11.0 m
Data from the previous 72 hours. | See also: Recent months at Mardie
Date/Time
WST
Temp
°C
App
Temp
°C
Dew
Point
Rel
Hum
%
Delta-T
°C
Wind Press
QNH
hPa
Press
MSL
hPa
Rain
since 9 am
mm
Dir
 
Spd
km/h
Gust
km/h
Spd
kts
Gust
kts
22/03:30pm 28.1 25.0 8.9 30 10.6 NNW 15 26 8 14 1013.9 1013.9 0.0
22/03:00pm 28.7 23.9 7.3 26 11.5 N 22 33 12 18 1013.9 1013.9 0.0
22/02:30pm 29.5 24.6 4.9 21 12.7 N 20 30 11 16 1014.0 1014.0 0.0
22/02:00pm 29.7 24.9 5.7 22 12.6 N 20 32 11 17 1014.2 1014.2 0.0
22/01:30pm 29.3 24.8 6.0 23 12.3 N 19 30 10 16 1014.4 1014.4 0.0
22/01:00pm 29.1 24.7 6.5 24 12.0 N 19 28 10 15 1014.7 1014.7 0.0
22/12:30pm 30.2 25.7 6.1 22 12.8 N 19 28 10 15 1015.1 1015.1 0.0
22/12:00pm 31.1 26.6 2.3 16 14.4 ENE 15 26 8 14 1015.3 1015.3 0.0
22/11:30am 31.4 25.5 -2.6 11 15.7 ENE 19 26 10 14 1015.8 1015.8 0.0
22/11:00am 30.7 25.5 -3.1 11 15.4 ESE 15 22 8 12 1016.2 1016.2 0.0
22/10:30am 29.8 24.0 -1.5 13 14.5 ESE 19 26 10 14 1016.5 1016.5 0.0
22/10:00am 28.6 23.6 1.2 17 13.2 SSE 17 24 9 13 1016.7 1016.7 0.0
22/09:30am 27.0 22.2 2.8 21 11.9 SSE 17 24 9 13 1016.8 1016.8 0.0
22/09:00am 23.6 20.7 6.4 33 8.8 S 11 15 6 8 1017.1 1017.0 0.0
22/08:30am 21.3 19.0 8.9 45 6.6 S 11 15 6 8 1017.0 1016.9 0.0
22/08:00am 18.2 17.1 10.6 61 4.1 S 7 9 4 5 1016.7 1016.7 0.0
22/07:30am 15.4 13.9 10.6 73 2.5 S 9 11 5 6 1016.6 1016.6 0.0
22/07:00am 12.5 11.0 9.1 80 1.7 SSW 7 9 4 5 1016.5 1016.5 0.0
22/06:30am 11.9 9.9 8.6 80 1.6 SSW 9 9 5 5 1016.3 1016.3 0.0
22/06:00am 12.2 10.5 8.5 78 1.8 SSW 7 7 4 4 1016.1 1016.1 0.0
22/05:30am 13.0 11.6 9.4 79 1.8 SSW 7 7 4 4 1015.9 1015.9 0.0
22/05:00am 13.3 12.1 9.5 78 1.9 SSW 6 6 3 3 1015.5 1015.5 0.0
22/04:30am 14.3 13.4 10.5 78 2.0 SSW 6 9 3 5 1015.3 1015.3 0.0
22/04:00am 14.8 13.8 10.4 75 2.3 SSW 6 6 3 3 1015.3 1015.3 0.0
22/03:30am 14.8 13.8 10.2 74 2.4 SSW 6 7 3 4 1015.3 1015.3 0.0
22/03:00am 15.6 14.6 11.0 74 2.5 S 7 9 4 5 1015.6 1015.6 0.0
22/02:30am 14.8 13.6 9.6 71 2.7 SSW 6 7 3 4 1015.8 1015.8 0.0
22/02:00am 15.6 14.7 10.6 72 2.6 SSW 6 7 3 4 1016.0 1016.0 0.0
22/01:30am 15.7 14.7 10.2 70 2.9 SSW 6 6 3 3 1016.1 1016.1 0.0
22/01:00am 16.6 15.7 11.5 72 2.8 SSW 7 9 4 5 1016.4 1016.4 0.0
22/12:30am 16.4 15.6 11.1 71 2.8 W 6 7 3 4 1016.4 1016.4 0.0
22/12:00am 17.4 18.2 12.5 73 2.7 CALM 0 4 0 2 1016.6 1016.6 0.0
 
Date/Time
WST
Temp
°C
App
Temp
°C
Dew
Point
Rel
Hum
%
Delta-T
°C
Wind Press
QNH
hPa
Press
MSL
hPa
Rain
since 9 am
mm
Dir
 
Spd
km/h
Gust
km/h
Spd
kts
Gust
kts
21/11:30pm 17.5 18.3 12.4 72 2.8 CALM 0 0 0 0 1016.7 1016.7 0.0
21/11:00pm 17.8 18.4 11.8 68 3.3 CALM 0 4 0 2 1016.7 1016.7 0.0
21/10:30pm 18.6 19.6 13.2 71 3.1 CALM 0 4 0 2 1017.0 1016.9 0.0
21/10:00pm 19.1 19.6 14.1 73 2.9 W 4 7 2 4 1017.0 1016.9 0.0
21/09:30pm 19.0 20.3 14.1 73 2.8 CALM 0 2 0 1 1016.8 1016.8 0.0
21/09:00pm 19.4 20.1 14.6 74 2.8 W 4 6 2 3 1016.5 1016.5 0.0
21/08:30pm 19.8 20.2 14.8 73 2.9 W 6 7 3 4 1016.2 1016.2 0.0
21/08:00pm 20.5 20.9 15.3 72 3.1 W 7 9 4 5 1015.9 1015.9 0.0
21/07:30pm 21.2 20.8 15.3 69 3.5 W 11 15 6 8 1015.7 1015.7 0.0
21/07:00pm 21.5 20.4 14.4 64 4.2 W 13 19 7 10 1015.2 1015.2 0.0
21/06:30pm 22.0 20.5 13.1 57 5.1 W 13 17 7 9 1014.8 1014.8 0.0
21/06:00pm 22.9 20.3 11.9 50 6.2 W 17 22 9 12 1014.5 1014.5 0.0
21/05:30pm 23.8 20.8 11.8 47 6.8 WNW 19 26 10 14 1014.2 1014.2 0.0
21/05:00pm 24.8 20.9 10.7 41 7.9 WNW 22 30 12 16 1013.9 1013.9 0.0
21/04:30pm 25.7 21.0 9.1 35 9.0 WNW 24 30 13 16 1013.8 1013.8 0.0
21/04:00pm 26.3 20.9 7.8 31 9.9 WNW 26 32 14 17 1013.8 1013.8 0.0
21/03:30pm 27.1 21.7 6.5 27 10.8 W 24 32 13 17 1013.6 1013.6 0.0
21/03:00pm 27.4 22.3 6.2 26 11.1 WNW 22 30 12 16 1013.7 1013.7 0.0
21/02:30pm 27.9 23.3 6.6 26 11.3 WNW 20 30 11 16 1013.9 1013.9 0.0
21/02:00pm 28.1 23.3 7.4 27 11.1 W 22 28 12 15 1014.1 1014.1 0.0
21/01:30pm 27.8 22.9 7.1 27 11.0 NW 22 32 12 17 1014.3 1014.3 0.0
21/01:00pm 28.0 24.3 6.2 25 11.4 WNW 15 24 8 13 1014.7 1014.7 0.0
21/12:30pm 28.2 24.5 6.3 25 11.5 WNW 15 20 8 11 1014.9 1014.9 0.0
21/12:00pm 28.1 24.4 6.2 25 11.5 WNW 15 20 8 11 1015.2 1015.2 0.0
21/11:30am 27.9 24.0 1.4 18 12.8 SSW 11 30 6 16 1015.7 1015.7 0.0
21/11:00am 27.6 23.7 1.2 18 12.6 S 11 19 6 10 1016.1 1016.1 0.0
21/10:30am 27.3 23.7 3.1 21 12.0 S 11 22 6 12 1016.3 1016.3 0.0
21/10:00am 26.2 23.1 3.5 23 11.2 S 9 22 5 12 1016.6 1016.6 0.0
21/09:30am 25.9 23.0 4.4 25 10.8 ESE 9 17 5 9 1016.6 1016.6 0.0
21/09:00am 24.2 21.6 4.0 27 9.9 ESE 7 11 4 6 1016.6 1016.6 0.0
21/08:30am 20.1 18.5 4.6 36 7.5 NW 2 6 1 3 1016.3 1016.3 0.0
21/08:00am 16.6 15.5 4.9 46 5.5 CALM 0 0 0 0 1016.1 1016.1 0.0
21/07:30am 13.8 12.2 4.4 53 4.3 S 2 7 1 4 1016.0 1016.0 0.0
21/07:00am 12.0 10.3 3.8 57 3.7 S 2 4 1 2 1015.6 1015.6 0.0
21/06:30am 11.7 9.2 3.5 57 3.6 SSW 6 9 3 5 1015.2 1015.2 0.0
21/06:00am 11.4 7.7 2.4 54 3.9 SW 11 11 6 6 1014.9 1014.9 0.0
21/05:30am 11.8 9.0 3.3 56 3.7 SW 7 7 4 4 1014.8 1014.8 0.0
21/05:00am 12.1 9.5 4.1 58 3.6 SW 7 9 4 5 1014.5 1014.5 0.0
21/04:30am 12.9 9.9 4.1 55 4.0 SW 9 9 5 5 1014.5 1014.5 0.0
21/04:00am 12.8 10.3 4.5 57 3.8 SW 7 9 4 5 1014.5 1014.5 0.0
21/03:30am 12.6 10.4 3.3 53 4.1 SW 4 4 2 2 1014.6 1014.6 0.0
21/03:00am 12.6 9.8 2.2 49 4.5 SW 6 7 3 4 1014.7 1014.7 0.0
21/02:30am 13.2 10.2 2.1 47 4.8 SW 7 9 4 5 1014.8 1014.8 0.0
21/02:00am 13.6 10.8 3.1 49 4.7 SW 7 7 4 4 1015.1 1015.1 0.0
21/01:30am 14.0 11.2 2.9 47 4.9 SW 7 9 4 5 1015.4 1015.4 0.0
21/01:00am 14.7 11.9 3.2 46 5.2 SW 7 9 4 5 1015.6 1015.6 0.0
21/12:30am 14.6 11.8 3.1 46 5.2 SW 7 9 4 5 1015.9 1015.9 0.0
21/12:00am 14.8 12.6 3.6 47 5.1 WSW 4 6 2 3 1016.1 1016.1 0.0
 
Date/Time
WST
Temp
°C
App
Temp
°C
Dew
Point
Rel
Hum
%
Delta-T
°C
Wind Press
QNH
hPa
Press
MSL
hPa
Rain
since 9 am
mm
Dir
 
Spd
km/h
Gust
km/h
Spd
kts
Gust
kts
20/11:30pm 15.4 13.0 4.5 48 5.1 SW 6 7 3 4 1016.1 1016.1 0.0
20/11:00pm 16.4 14.7 6.0 50 5.0 SW 4 4 2 2 1016.1 1016.1 0.0
20/10:30pm 17.9 16.7 7.9 52 5.1 SW 4 4 2 2 1016.2 1016.2 0.0
20/10:00pm 16.8 14.3 4.8 45 5.7 SW 7 9 4 5 1016.1 1016.1 0.0
20/09:30pm 18.0 15.6 1.9 34 7.3 WSW 4 6 2 3 1016.0 1016.0 0.0
20/09:00pm 19.5 18.3 4.8 38 7.1 CALM 0 6 0 3 1015.9 1015.9 0.0
20/08:30pm 20.4 17.6 2.3 30 8.4 WSW 6 9 3 5 1015.8 1015.8 0.0
20/08:00pm 21.1 19.7 3.8 32 8.3 CALM 0 2 0 1 1015.4 1015.4 0.0
20/07:30pm 21.5 19.3 3.2 30 8.7 W 4 6 2 3 1015.1 1015.1 0.0
20/07:00pm 22.3 18.7 2.9 28 9.2 W 11 13 6 7 1014.8 1014.8 0.0
20/06:30pm 23.2 19.7 1.5 24 10.1 W 9 11 5 6 1014.6 1014.6 0.0
20/06:00pm 25.2 21.5 0.0 19 11.6 W 9 13 5 7 1014.4 1014.4 0.0
20/05:30pm 26.5 21.1 -1.3 16 12.6 W 17 24 9 13 1014.2 1014.2 0.0
20/05:00pm 27.0 21.1 -0.9 16 12.8 W 20 28 11 15 1014.1 1014.1 0.0
20/04:30pm 27.7 21.4 -1.3 15 13.3 W 22 28 12 15 1014.0 1014.0 0.0
20/04:00pm 28.1 21.9 -0.1 16 13.3 WNW 22 30 12 16 1013.9 1013.9 0.0
20/03:30pm 29.0 22.9 0.7 16 13.6 W 22 30 12 16 1013.8 1013.8 0.0
20/03:00pm 29.0 22.8 -0.2 15 13.8 WNW 22 30 12 16 1013.9 1013.9 0.0
20/02:30pm 29.0 22.9 0.7 16 13.6 WNW 22 30 12 16 1014.1 1014.1 0.0
20/02:00pm 29.4 23.0 1.0 16 13.7 WNW 24 33 13 18 1014.4 1014.4 0.0
20/01:30pm 29.5 23.6 1.9 17 13.6 WNW 22 35 12 19 1014.6 1014.6 0.0
20/01:00pm 28.9 24.9 -2.3 13 14.2 W 9 20 5 11 1015.2 1015.2 0.0
20/12:30pm 28.5 24.2 -1.6 14 13.8 W 11 22 6 12 1015.7 1015.7 0.0
20/12:00pm 28.5 24.2 -1.6 14 13.8 SSW 11 20 6 11 1016.2 1016.2 0.0
20/11:30am 28.6 23.7 -0.5 15 13.6 S 15 22 8 12 1016.7 1016.7 0.0
20/11:00am 27.7 22.0 -0.4 16 13.1 SSW 19 28 10 15 1017.1 1017.0 0.0
20/10:30am 27.0 20.9 0.7 18 12.4 S 22 32 12 17 1017.4 1017.3 0.0
20/10:00am 26.7 20.5 1.9 20 11.9 S 24 33 13 18 1017.6 1017.5 0.0
20/09:30am 26.2 20.1 2.8 22 11.4 S 24 32 13 17 1017.8 1017.7 0.0
20/09:00am 23.3 18.4 4.3 29 9.3 S 19 26 10 14 1018.0 1017.9 0.0
20/08:30am 21.5 17.8 4.6 33 8.3 S 13 19 7 10 1017.8 - 0.0
20/08:00am 19.2 16.1 5.6 41 6.7 S 11 13 6 7 1017.5 1017.4 0.0
20/07:30am 15.8 13.2 6.3 53 4.6 SSW 9 11 5 6 1017.5 - 0.0
20/07:00am 12.3 11.1 4.8 60 3.4 CALM 0 4 0 2 1017.3 1017.2 0.0
20/06:30am 11.9 10.8 5.3 64 3.0 CALM 0 0 0 0 1017.0 - 0.0
20/06:00am 12.1 11.1 5.7 65 3.0 CALM 0 0 0 0 1016.6 1016.6 0.0
20/05:30am 13.1 12.2 6.0 62 3.4 CALM 0 0 0 0 1016.3 - 0.0
20/05:00am 13.1 11.9 4.8 57 3.8 CALM 0 0 0 0 1016.1 1016.1 0.0
20/04:30am 14.4 13.6 6.3 58 3.9 CALM 0 0 0 0 1016.0 - 0.0
20/04:00am 15.5 13.8 6.0 53 4.6 SSW 4 4 2 2 1015.9 1015.9 0.0
20/03:30am 16.1 14.4 6.0 51 4.9 SSW 4 6 2 3 1016.0 - 0.0
20/03:00am 17.7 15.7 6.3 47 5.6 S 6 13 3 7 1016.0 1016.0 0.0
20/02:30am 17.0 14.4 5.9 48 5.4 S 9 11 5 6 1016.3 - 0.0
20/02:00am 17.1 14.9 6.0 48 5.4 SW 7 9 4 5 1016.3 1016.3 0.0
20/01:30am 17.1 14.7 7.2 52 4.9 WSW 9 9 5 5 1016.5 - 0.0
20/01:00am 16.4 15.2 9.6 64 3.5 W 6 9 3 5 1016.7 1016.7 0.0
20/12:30am 17.0 16.5 10.6 66 3.4 WNW 4 6 2 3 1016.8 - 0.0
20/12:00am 17.3 16.5 10.9 66 3.4 WNW 6 7 3 4 1017.0 1016.9 0.0
 
Date/Time
WST
Temp
°C
App
Temp
°C
Dew
Point
Rel
Hum
%
Delta-T
°C
Wind Press
QNH
hPa
Press
MSL
hPa
Rain
since 9 am
mm
Dir
 
Spd
km/h
Gust
km/h
Spd
kts
Gust
kts
19/11:30pm 18.4 18.0 13.1 71 3.0 NW 7 7 4 4 1017.1 - 0.0
19/11:00pm 18.8 18.9 14.5 76 2.5 NW 7 9 4 5 1017.3 1017.2 0.0
19/10:30pm 18.7 18.5 14.8 78 2.3 NW 9 9 5 5 1017.4 - 0.0
19/10:00pm 18.8 18.4 14.1 74 2.7 NW 9 11 5 6 1017.4 1017.3 0.0
19/09:30pm 19.8 19.9 14.4 71 3.1 NW 7 9 4 5 1017.3 - 0.0
19/09:00pm 20.7 20.4 14.4 67 3.7 NW 9 13 5 7 1017.3 1017.2 0.0
19/08:30pm 21.5 20.3 13.9 62 4.4 WNW 13 17 7 9 1017.1 - 0.0
19/08:00pm 22.3 20.4 13.1 56 5.3 NW 15 19 8 10 1016.7 1016.7 0.0
19/07:30pm 22.7 20.5 13.2 55 5.5 WNW 17 22 9 12 1016.4 - 0.0
19/07:00pm 22.7 20.5 14.3 59 4.9 W 19 24 10 13 1016.0 1016.0 0.0
19/06:30pm 23.0 21.4 14.0 57 5.3 W 15 22 8 12 1015.8 - 0.0
19/06:00pm 24.0 21.5 12.3 48 6.7 WNW 17 22 9 12 1015.6 1015.6 0.0
19/05:30pm 24.6 22.1 13.5 50 6.5 WNW 19 26 10 14 1015.6 - 0.0
19/05:00pm 25.7 22.2 12.2 43 7.7 WNW 22 30 12 16 1015.5 1015.5 0.0
19/04:30pm 26.7 23.0 11.6 39 8.6 WNW 22 30 12 16 1015.5 - 0.0
19/04:00pm 27.3 23.5 11.3 37 9.1 WNW 22 30 12 16 1015.4 1015.4 0.0

Other Formats:

Comma delimited format used in spreadsheet applications
http://www.bom.gov.au/fwo/IDW60801/IDW60801.94306.axf

JavaScript Object Notation format (JSON) in row-major order
http://www.bom.gov.au/fwo/IDW60801/IDW60801.94306.json